Time;durP1;ratioP1;P1;durP2;ratioP2;P2;SDS_P1;SDS_P2;PMS_P1;PMS_P2;Temp;Humidity;BMP_temperature;BMP_pressure;BME280_temperature;BME280_humidity;BME280_pressure;Samples;Min_cycle;Max_cycle;Signal;HPM_P1;HPM_P2
2023/04/14 10:25:13;;;;;;;6.07;1.10;;;;;;;;;;5014232;22;93063;-78
2023/04/14 10:27:40;;;;;;;4.72;1.20;;;;;;;;;;4995727;28;92407;-79
2023/04/14 10:30:07;;;;;;;4.57;1.10;;;;;;;;;;4986186;28;93429;-79
2023/04/14 10:32:36;;;;;;;3.38;0.90;;;;;;;;;;4997032;28;92053;-78
2023/04/14 10:35:08;;;;;;;3.55;1.08;;;;;;;;;;5000949;28;92691;-78
2023/04/14 10:37:35;;;;;;;3.65;1.02;;;;;;;;;;4997924;28;91383;-78
2023/04/14 10:40:04;;;;;;;3.42;1.00;;;;;;;;;;5013078;28;92680;-78
2023/04/14 10:42:49;;;;;;;2.83;1.00;;;;;;;;;;5001517;28;98227;-77
2023/04/14 10:45:16;;;;;;;3.22;1.00;;;;;;;;;;5006611;28;94757;-78
2023/04/14 10:47:44;;;;;;;4.97;1.30;;;;;;;;;;4998415;28;95206;-78
2023/04/14 10:50:12;;;;;;;4.20;1.20;;;;;;;;;;4995444;28;93436;-78
2023/04/14 10:52:47;;;;;;;3.42;1.10;;;;;;;;;;4994853;28;92694;-78
2023/04/14 10:55:14;;;;;;;3.47;1.10;;;;;;;;;;5000694;28;92740;-77
2023/04/14 10:57:42;;;;;;;2.40;0.80;;;;;;;;;;5000219;28;93082;-77
2023/04/14 11:00:25;;;;;;;4.07;1.23;;;;;;;;;;4999901;28;92837;-79
2023/04/14 11:03:02;;;;;;;3.45;1.05;;;;;;;;;;4997957;28;91728;-78
2023/04/14 11:05:33;;;;;;;2.22;0.90;;;;;;;;;;4995440;28;92621;-77
2023/04/14 11:08:00;;;;;;;2.40;0.90;;;;;;;;;;4993604;28;92195;-78
2023/04/14 11:10:32;;;;;;;2.85;0.98;;;;;;;;;;4991520;28;99537;-78
2023/04/14 11:13:06;;;;;;;4.07;1.00;;;;;;;;;;4998315;28;92392;-78
2023/04/14 11:15:48;;;;;;;4.13;1.05;;;;;;;;;;5004247;28;92440;-78
2023/04/14 11:18:15;;;;;;;2.85;0.90;;;;;;;;;;5002094;28;92508;-79
2023/04/14 11:20:42;;;;;;;2.78;0.90;;;;;;;;;;4998396;28;92646;-78
2023/04/14 11:23:09;;;;;;;;;;;;;;;;;;5018069;28;92825;-77
2023/04/14 11:25:35;;;;;;;3.67;1.08;;;;;;;;;;5014129;28;104157;-77
2023/04/14 11:28:02;;;;;;;4.05;1.00;;;;;;;;;;5018241;28;92676;-77
2023/04/14 11:30:29;;;;;;;3.08;1.10;;;;;;;;;;5015943;28;97169;-79
2023/04/14 11:32:56;;;;;;;4.45;1.00;;;;;;;;;;5013565;28;92923;-79
2023/04/14 11:35:24;;;;;;;3.88;1.20;;;;;;;;;;5010313;28;94771;-80
2023/04/14 11:37:52;;;;;;;10.32;1.10;;;;;;;;;;5014237;28;92995;-79
2023/04/14 11:40:18;;;;;;;3.25;0.73;;;;;;;;;;4990364;28;92970;-80
2023/04/14 11:42:46;;;;;;;3.17;0.90;;;;;;;;;;5016500;28;92608;-79
2023/04/14 11:45:14;;;;;;;4.78;1.10;;;;;;;;;;4997582;28;92519;-79
2023/04/14 11:47:59;;;;;;;5.97;0.95;;;;;;;;;;4997950;28;92463;-79
2023/04/14 11:50:28;;;;;;;3.58;1.00;;;;;;;;;;5014531;28;92732;-81
2023/04/14 11:52:58;;;;;;;2.47;0.80;;;;;;;;;;4999849;28;91955;-80
2023/04/14 11:55:25;;;;;;;3.30;0.93;;;;;;;;;;5015433;28;92564;-80
2023/04/14 11:57:53;;;;;;;4.22;1.13;;;;;;;;;;4996063;28;95432;-80
2023/04/14 12:00:19;;;;;;;2.05;0.73;;;;;;;;;;5013450;28;95827;-79
2023/04/14 12:02:46;;;;;;;2.35;0.80;;;;;;;;;;4999402;28;96345;-77
2023/04/14 12:05:18;;;;;;;3.78;0.85;;;;;;;;;;5010779;28;92134;-79
2023/04/14 12:07:46;;;;;;;3.47;0.90;;;;;;;;;;5016762;28;92480;-78
2023/04/14 12:10:13;;;;;;;5.28;0.90;;;;;;;;;;5013565;28;92786;-78
2023/04/14 12:12:40;;;;;;;4.47;0.70;;;;;;;;;;4998076;28;92489;-79
2023/04/14 12:15:07;;;;;;;2.55;0.70;;;;;;;;;;5008830;28;93745;-79
2023/04/14 12:17:34;;;;;;;2.35;0.90;;;;;;;;;;5017196;28;92270;-78
2023/04/14 12:20:00;;;;;;;1.65;0.80;;;;;;;;;;4997235;28;92434;-80
2023/04/14 12:22:28;;;;;;;3.60;0.90;;;;;;;;;;4997505;28;92418;-80
2023/04/14 12:24:55;;;;;;;1.42;0.68;;;;;;;;;;5018732;28;94729;-79
2023/04/14 12:27:23;;;;;;;2.70;0.70;;;;;;;;;;5015900;28;95282;-79
2023/04/14 12:29:50;;;;;;;1.88;0.55;;;;;;;;;;5015344;28;92499;-77
2023/04/14 12:32:16;;;;;;;;;;;;;;;;;;5013805;28;92608;-76
2023/04/14 12:34:53;;;;;;;5.55;0.88;;;;;;;;;;5017869;28;120840;-78
2023/04/14 12:37:23;;;;;;;4.85;0.85;;;;;;;;;;5017715;28;95802;-77
2023/04/14 12:39:51;;;;;;;3.78;0.90;;;;;;;;;;4999815;28;92521;-77
2023/04/14 12:42:17;;;;;;;3.15;0.80;;;;;;;;;;4998711;28;92466;-77
2023/04/14 12:44:53;;;;;;;2.83;1.00;;;;;;;;;;5016560;28;92924;-77
2023/04/14 12:47:27;;;;;;;2.25;0.80;;;;;;;;;;5020734;28;92160;-77
2023/04/14 12:49:54;;;;;;;2.42;0.80;;;;;;;;;;5015862;28;95107;-77
2023/04/14 12:52:33;;;;;;;1.98;0.77;;;;;;;;;;5017378;28;92732;-77
2023/04/14 12:55:01;;;;;;;3.00;0.80;;;;;;;;;;5017064;28;92377;-77
2023/04/14 12:57:28;;;;;;;2.67;0.90;;;;;;;;;;5025549;28;93121;-78
2023/04/14 12:59:55;;;;;;;1.33;0.90;;;;;;;;;;5017601;28;92258;-77
2023/04/14 13:02:21;;;;;;;1.55;0.75;;;;;;;;;;5016968;28;92563;-77
2023/04/14 13:04:49;;;;;;;2.88;0.75;;;;;;;;;;5018041;28;93013;-77
2023/04/14 13:07:15;;;;;;;1.88;0.80;;;;;;;;;;4999339;28;91777;-78
2023/04/14 13:09:42;;;;;;;3.35;0.95;;;;;;;;;;5010578;28;92472;-77
2023/04/14 13:12:08;;;;;;;1.83;0.90;;;;;;;;;;5016937;28;96730;-77
2023/04/14 13:14:35;;;;;;;3.13;0.90;;;;;;;;;;5016201;28;94963;-78
2023/04/14 13:17:04;;;;;;;2.05;0.70;;;;;;;;;;5017477;28;92957;-77
2023/04/14 13:19:31;;;;;;;2.80;0.73;;;;;;;;;;5017510;28;92043;-78
2023/04/14 13:21:58;;;;;;;2.75;0.80;;;;;;;;;;5017548;28;92336;-77
2023/04/14 13:24:24;;;;;;;2.97;0.80;;;;;;;;;;5016506;28;92585;-78
2023/04/14 13:26:51;;;;;;;2.33;0.80;;;;;;;;;;5016920;28;92484;-77
2023/04/14 13:29:17;;;;;;;2.83;0.88;;;;;;;;;;5019695;28;92430;-79
2023/04/14 13:31:44;;;;;;;3.38;0.90;;;;;;;;;;5017935;28;91411;-77
2023/04/14 13:34:10;;;;;;;4.30;0.80;;;;;;;;;;5017407;28;91955;-77
2023/04/14 13:36:37;;;;;;;6.53;0.90;;;;;;;;;;5017137;28;92805;-77
2023/04/14 13:39:04;;;;;;;2.13;0.90;;;;;;;;;;5016091;28;94946;-77
2023/04/14 13:41:31;;;;;;;;;;;;;;;;;;4982142;28;95391;-77
2023/04/14 13:43:57;;;;;;;2.90;0.82;;;;;;;;;;5017718;28;120550;-77
2023/04/14 13:46:23;;;;;;;2.80;0.80;;;;;;;;;;5018798;28;92612;-77
2023/04/14 13:48:50;;;;;;;2.78;0.80;;;;;;;;;;5019559;28;92546;-77
2023/04/14 13:51:17;;;;;;;1.98;0.80;;;;;;;;;;5021675;28;93038;-76
2023/04/14 13:53:44;;;;;;;3.05;0.88;;;;;;;;;;4984640;28;96098;-77
2023/04/14 13:56:11;;;;;;;2.92;0.80;;;;;;;;;;5018330;28;91754;-77
2023/04/14 13:58:37;;;;;;;2.35;0.75;;;;;;;;;;5000895;28;92425;-77
2023/04/14 14:01:12;;;;;;;3.75;0.65;;;;;;;;;;5019165;28;92798;-77
2023/04/14 14:03:39;;;;;;;3.70;0.80;;;;;;;;;;5019065;28;95061;-76
2023/04/14 14:06:06;;;;;;;3.60;0.90;;;;;;;;;;5001068;28;92343;-77
2023/04/14 14:08:36;;;;;;;2.28;0.90;;;;;;;;;;5002098;28;93321;-77
2023/04/14 14:11:04;;;;;;;1.40;0.70;;;;;;;;;;5019186;28;92540;-78
2023/04/14 14:13:31;;;;;;;3.50;0.95;;;;;;;;;;5009515;28;92078;-77
2023/04/14 14:15:58;;;;;;;0.88;0.70;;;;;;;;;;5019825;28;93564;-76
2023/04/14 14:18:26;;;;;;;2.42;0.90;;;;;;;;;;5019888;28;92231;-77
2023/04/14 14:20:52;;;;;;;2.75;0.90;;;;;;;;;;5019729;28;93757;-78
2023/04/14 14:23:19;;;;;;;2.47;0.70;;;;;;;;;;5020084;28;93772;-78
2023/04/14 14:25:45;;;;;;;3.15;0.77;;;;;;;;;;5018850;28;92499;-77
2023/04/14 14:28:12;;;;;;;2.97;0.63;;;;;;;;;;4999561;28;94720;-78
2023/04/14 14:30:38;;;;;;;2.22;0.85;;;;;;;;;;5001220;28;93558;-77
2023/04/14 14:33:05;;;;;;;1.95;0.70;;;;;;;;;;5019806;28;92592;-77
2023/04/14 14:35:31;;;;;;;1.60;0.55;;;;;;;;;;5001072;28;92723;-77
2023/04/14 14:37:58;;;;;;;1.42;0.63;;;;;;;;;;5017419;28;92446;-77
2023/04/14 14:40:27;;;;;;;1.65;0.70;;;;;;;;;;4990884;28;94798;-76
2023/04/14 14:42:53;;;;;;;1.88;0.70;;;;;;;;;;5005941;28;92751;-77
2023/04/14 14:45:20;;;;;;;1.98;0.70;;;;;;;;;;5020071;28;91370;-78
2023/04/14 14:47:56;;;;;;;2.83;0.80;;;;;;;;;;5020156;28;92279;-77
2023/04/14 14:50:23;;;;;;;1.67;0.77;;;;;;;;;;5017922;28;93871;-77
2023/04/14 14:52:49;;;;;;;0.75;0.50;;;;;;;;;;5018167;28;94624;-78
2023/04/14 14:55:16;;;;;;;1.92;0.70;;;;;;;;;;5022059;28;95327;-77
2023/04/14 14:57:42;;;;;;;2.65;0.90;;;;;;;;;;5019408;28;92205;-76
2023/04/14 15:00:09;;;;;;;1.83;0.70;;;;;;;;;;5018951;28;92396;-77
2023/04/14 15:02:37;;;;;;;;;;;;;;;;;;5020087;28;92706;-77
2023/04/14 15:05:04;;;;;;;1.95;0.70;;;;;;;;;;5020729;28;93633;-77
2023/04/14 15:07:31;;;;;;;1.52;0.57;;;;;;;;;;5019932;28;92252;-76
2023/04/14 15:09:57;;;;;;;2.90;0.80;;;;;;;;;;5019008;28;92576;-77
2023/04/14 15:12:24;;;;;;;;;;;;;;;;;;5000888;28;92554;-77
2023/04/14 15:14:51;;;;;;;1.92;0.80;;;;;;;;;;5020335;28;111929;-78
2023/04/14 15:17:17;;;;;;;1.30;0.60;;;;;;;;;;5020976;28;95773;-77
2023/04/14 15:19:44;;;;;;;2.95;0.73;;;;;;;;;;5019238;28;94625;-77
2023/04/14 15:22:10;;;;;;;2.25;0.70;;;;;;;;;;5018231;28;93063;-77
2023/04/14 15:24:37;;;;;;;1.88;0.70;;;;;;;;;;5018803;28;92505;-76
2023/04/14 15:27:03;;;;;;;1.73;0.70;;;;;;;;;;5017213;28;93624;-76
2023/04/14 15:29:30;;;;;;;1.40;0.68;;;;;;;;;;5018871;28;93033;-77
2023/04/14 15:31:57;;;;;;;2.20;0.82;;;;;;;;;;4998502;28;92319;-77
2023/04/14 15:34:24;;;;;;;1.30;0.60;;;;;;;;;;5018931;28;92815;-76
2023/04/14 15:36:50;;;;;;;2.88;0.82;;;;;;;;;;4999970;28;95117;-76
2023/04/14 15:39:17;;;;;;;2.75;0.90;;;;;;;;;;5000088;28;92277;-77
2023/04/14 15:41:46;;;;;;;2.22;0.80;;;;;;;;;;5008781;28;94884;-77
2023/04/14 15:44:13;;;;;;;2.83;0.98;;;;;;;;;;5018017;28;92661;-77
2023/04/14 15:46:39;;;;;;;2.55;0.90;;;;;;;;;;5023823;28;94643;-77
2023/04/14 15:49:06;;;;;;;3.05;0.93;;;;;;;;;;5018797;28;92381;-76
2023/04/14 15:51:33;;;;;;;2.80;0.80;;;;;;;;;;5017996;28;92513;-77
2023/04/14 15:54:00;;;;;;;2.03;0.77;;;;;;;;;;5013482;28;92768;-77
2023/04/14 15:56:27;;;;;;;;;;;;;;;;;;4997030;28;93007;-77
2023/04/14 15:58:53;;;;;;;2.72;0.90;;;;;;;;;;5000264;28;104421;-76
2023/04/14 16:01:20;;;;;;;3.22;0.80;;;;;;;;;;4981973;28;92276;-76
2023/04/14 16:03:48;;;;;;;2.97;0.82;;;;;;;;;;4993690;28;92183;-76
2023/04/14 16:06:17;;;;;;;2.15;0.70;;;;;;;;;;4995263;28;94572;-77
2023/04/14 16:08:44;;;;;;;1.05;0.60;;;;;;;;;;4995184;28;94812;-77
2023/04/14 16:11:14;;;;;;;2.15;0.70;;;;;;;;;;5012870;28;92425;-76
2023/04/14 16:13:42;;;;;;;1.75;0.65;;;;;;;;;;5016773;28;93037;-77
2023/04/14 16:16:10;;;;;;;2.40;0.80;;;;;;;;;;4997246;28;93017;-77
2023/04/14 16:18:37;;;;;;;2.03;0.70;;;;;;;;;;5015491;28;93139;-77
2023/04/14 16:21:03;;;;;;;2.45;0.80;;;;;;;;;;4993899;28;94852;-79
2023/04/14 16:23:30;;;;;;;3.50;0.77;;;;;;;;;;4986691;28;93209;-80
2023/04/14 16:25:56;;;;;;;2.70;0.60;;;;;;;;;;4974888;28;94416;-79
2023/04/14 16:28:23;;;;;;;6.18;0.90;;;;;;;;;;5015844;28;92724;-79
2023/04/14 16:30:50;;;;;;;6.63;1.13;;;;;;;;;;5014189;28;94762;-78
2023/04/14 16:33:16;;;;;;;4.90;0.90;;;;;;;;;;4997764;28;95394;-77
2023/04/14 16:35:43;;;;;;;4.38;0.80;;;;;;;;;;5013657;28;93171;-78
2023/04/14 16:38:09;;;;;;;2.47;0.80;;;;;;;;;;4977801;28;94575;-78
2023/04/14 16:40:36;;;;;;;1.73;0.70;;;;;;;;;;4998743;28;94444;-76
2023/04/14 16:43:03;;;;;;;3.47;1.00;;;;;;;;;;5016136;28;92270;-77
2023/04/14 16:45:30;;;;;;;4.35;1.00;;;;;;;;;;5001346;28;92834;-76
2023/04/14 16:47:57;;;;;;;2.88;0.70;;;;;;;;;;5013164;28;92872;-77
2023/04/14 16:50:24;;;;;;;3.50;0.90;;;;;;;;;;5015942;28;92327;-76
2023/04/14 16:52:51;;;;;;;2.17;0.70;;;;;;;;;;5016280;28;92343;-77
2023/04/14 16:55:17;;;;;;;;;;;;;;;;;;5015043;28;95001;-77
2023/04/14 16:57:44;;;;;;;12.68;0.98;;;;;;;;;;5017704;28;104571;-76
2023/04/14 17:00:12;;;;;;;6.90;1.00;;;;;;;;;;5015106;28;93432;-77
2023/04/14 17:02:39;;;;;;;4.65;1.17;;;;;;;;;;5016326;28;92678;-77
2023/04/14 17:05:08;;;;;;;5.25;1.00;;;;;;;;;;5000584;28;92263;-78
2023/04/14 17:07:35;;;;;;;2.30;0.82;;;;;;;;;;5014340;28;94824;-77
2023/04/14 17:10:02;;;;;;;3.42;1.10;;;;;;;;;;5005937;28;92430;-79
2023/04/14 17:12:29;;;;;;;4.43;0.80;;;;;;;;;;5015334;28;97038;-78
2023/04/14 17:14:55;;;;;;;5.00;0.82;;;;;;;;;;5015263;28;92601;-79
2023/04/14 17:17:22;;;;;;;2.10;0.82;;;;;;;;;;5015089;28;92249;-78
2023/04/14 17:19:48;;;;;;;3.25;0.75;;;;;;;;;;5004225;28;95049;-78
2023/04/14 17:22:15;;;;;;;6.53;0.98;;;;;;;;;;4999419;28;92717;-79
2023/04/14 17:24:42;;;;;;;3.13;0.80;;;;;;;;;;4993277;28;92392;-78
2023/04/14 17:27:09;;;;;;;;;;;;;;;;;;5021673;28;93429;-78
2023/04/14 17:29:35;;;;;;;2.95;0.70;;;;;;;;;;5020529;28;92085;-78
2023/04/14 17:32:02;;;;;;;3.33;1.00;;;;;;;;;;5019475;28;92364;-78
2023/04/14 17:34:29;;;;;;;2.35;0.90;;;;;;;;;;5001708;28;98755;-78
2023/04/14 17:36:56;;;;;;;2.55;0.82;;;;;;;;;;5002014;28;92002;-78
2023/04/14 17:39:25;;;;;;;2.08;0.70;;;;;;;;;;5019710;28;93023;-78
2023/04/14 17:41:53;;;;;;;2.70;0.80;;;;;;;;;;5019382;28;92601;-78
2023/04/14 17:44:20;;;;;;;3.72;0.80;;;;;;;;;;5018022;28;94878;-78
2023/04/14 17:46:46;;;;;;;;;;;;;;;;;;4989620;28;98208;-78
2023/04/14 17:49:13;;;;;;;2.78;0.80;;;;;;;;;;5024309;28;92521;-79
2023/04/14 17:51:40;;;;;;;1.35;0.80;;;;;;;;;;5019960;28;92575;-79
2023/04/14 17:54:07;;;;;;;1.60;0.77;;;;;;;;;;5019536;28;92397;-80
2023/04/14 17:56:34;;;;;;;2.28;0.65;;;;;;;;;;5002136;28;92504;-80
2023/04/14 17:59:00;;;;;;;1.83;0.80;;;;;;;;;;5020428;28;92352;-78
2023/04/14 18:01:27;;;;;;;3.28;0.90;;;;;;;;;;5019135;28;92777;-79
2023/04/14 18:03:56;;;;;;;1.40;0.70;;;;;;;;;;5019641;28;92297;-77
2023/04/14 18:06:23;;;;;;;3.13;0.90;;;;;;;;;;4997893;28;95035;-77
2023/04/14 18:08:50;;;;;;;1.40;0.73;;;;;;;;;;4995934;28;96804;-77
2023/04/14 18:11:17;;;;;;;2.05;0.90;;;;;;;;;;5011349;28;92644;-80
2023/04/14 18:13:43;;;;;;;3.65;0.90;;;;;;;;;;4982366;28;92917;-79
2023/04/14 18:16:10;;;;;;;3.08;0.80;;;;;;;;;;5011221;28;92800;-80
2023/04/14 18:18:37;;;;;;;2.53;0.93;;;;;;;;;;5019902;28;92461;-78
2023/04/14 18:21:03;;;;;;;2.05;0.70;;;;;;;;;;5000930;28;95196;-79
2023/04/14 18:23:30;;;;;;;2.45;0.63;;;;;;;;;;5019875;28;92114;-79
2023/04/14 18:25:57;;;;;;;2.95;1.10;;;;;;;;;;5019677;28;92090;-78
2023/04/14 18:28:26;;;;;;;2.80;0.85;;;;;;;;;;5018467;28;94254;-79
2023/04/14 18:30:59;;;;;;;2.92;1.00;;;;;;;;;;5019337;28;92658;-79
2023/04/14 18:33:26;;;;;;;1.58;0.70;;;;;;;;;;5021141;28;94499;-78
2023/04/14 18:35:54;;;;;;;1.92;0.85;;;;;;;;;;5014980;28;92494;-80
2023/04/14 18:38:20;;;;;;;1.90;0.80;;;;;;;;;;5017445;28;93154;-79
2023/04/14 18:40:47;;;;;;;2.17;0.80;;;;;;;;;;5007029;28;93594;-79
2023/04/14 18:43:15;;;;;;;1.73;1.00;;;;;;;;;;5017812;28;93200;-79
2023/04/14 18:45:46;;;;;;;3.15;0.98;;;;;;;;;;5017663;28;92808;-79
2023/04/14 18:48:14;;;;;;;2.22;0.88;;;;;;;;;;5015829;28;92669;-80
2023/04/14 18:50:41;;;;;;;2.13;1.05;;;;;;;;;;5000466;28;91816;-80
2023/04/14 18:53:08;;;;;;;3.30;1.00;;;;;;;;;;5000111;28;92320;-80
2023/04/14 18:55:35;;;;;;;2.88;1.00;;;;;;;;;;5022141;28;92695;-79
2023/04/14 18:58:11;;;;;;;3.60;0.98;;;;;;;;;;5016104;28;94450;-80
2023/04/14 19:00:38;;;;;;;3.00;0.98;;;;;;;;;;4999614;28;93924;-79
2023/04/14 19:03:07;;;;;;;3.38;1.00;;;;;;;;;;5001830;28;92438;-79
2023/04/14 19:05:35;;;;;;;1.60;0.88;;;;;;;;;;5018534;28;92600;-79
2023/04/14 19:08:06;;;;;;;1.80;0.90;;;;;;;;;;5017819;28;93126;-79
2023/04/14 19:10:33;;;;;;;2.25;1.00;;;;;;;;;;5000420;28;92554;-79
2023/04/14 19:12:59;;;;;;;2.97;0.90;;;;;;;;;;5019704;28;92608;-80
2023/04/14 19:15:26;;;;;;;2.20;0.80;;;;;;;;;;5021310;28;92434;-79
2023/04/14 19:17:53;;;;;;;1.95;0.70;;;;;;;;;;5018599;28;92236;-80
2023/04/14 19:20:20;;;;;;;2.85;1.00;;;;;;;;;;5016834;28;93693;-79
2023/04/14 19:22:48;;;;;;;2.85;1.00;;;;;;;;;;5000341;28;94757;-79
2023/04/14 19:25:15;;;;;;;2.35;0.90;;;;;;;;;;5017001;28;94644;-79
2023/04/14 19:27:41;;;;;;;2.42;0.80;;;;;;;;;;5017584;28;93009;-79
2023/04/14 19:30:09;;;;;;;2.80;1.00;;;;;;;;;;5018013;28;92206;-81
2023/04/14 19:32:35;;;;;;;4.57;1.00;;;;;;;;;;5018647;28;92757;-79
2023/04/14 19:35:02;;;;;;;2.10;0.90;;;;;;;;;;5017882;28;93011;-78
2023/04/14 19:37:28;;;;;;;1.60;0.70;;;;;;;;;;5021879;28;92241;-79
2023/04/14 19:39:56;;;;;;;2.88;1.00;;;;;;;;;;5017746;28;91773;-78
2023/04/14 19:42:22;;;;;;;1.75;0.88;;;;;;;;;;4998879;28;92711;-79
2023/04/14 19:44:49;;;;;;;1.67;0.90;;;;;;;;;;5002683;28;94952;-79
2023/04/14 19:47:16;;;;;;;2.22;0.90;;;;;;;;;;5015180;28;95699;-79
2023/04/14 19:49:42;;;;;;;2.20;0.80;;;;;;;;;;4999444;28;92160;-80
2023/04/14 19:52:09;;;;;;;1.55;0.90;;;;;;;;;;5010363;28;93874;-79
2023/04/14 19:54:36;;;;;;;2.08;1.00;;;;;;;;;;5018047;28;93199;-79
2023/04/14 19:57:03;;;;;;;1.92;1.00;;;;;;;;;;5017233;28;92138;-79
2023/04/14 19:59:31;;;;;;;2.35;1.00;;;;;;;;;;5021005;28;92332;-79
2023/04/14 20:01:59;;;;;;;1.67;0.82;;;;;;;;;;5016289;28;92241;-79
2023/04/14 20:04:26;;;;;;;2.60;1.10;;;;;;;;;;5017007;28;92895;-78
2023/04/14 20:06:54;;;;;;;2.78;1.10;;;;;;;;;;4997475;28;94717;-79
2023/04/14 20:09:20;;;;;;;2.03;1.00;;;;;;;;;;5015971;28;92099;-79
2023/04/14 20:11:47;;;;;;;1.88;0.98;;;;;;;;;;5012649;28;94754;-78
2023/04/14 20:14:14;;;;;;;4.93;1.20;;;;;;;;;;5017581;28;93199;-78
2023/04/14 20:16:41;;;;;;;2.90;1.30;;;;;;;;;;5018370;28;92278;-77
2023/04/14 20:19:08;;;;;;;3.40;1.17;;;;;;;;;;5003005;28;93604;-79
2023/04/14 20:21:35;;;;;;;2.83;1.20;;;;;;;;;;5019656;28;92890;-78
2023/04/14 20:24:02;;;;;;;1.55;1.00;;;;;;;;;;5001070;28;92475;-79
2023/04/14 20:26:29;;;;;;;3.75;1.20;;;;;;;;;;5027957;22;98600;-77
2023/04/14 20:28:55;;;;;;;3.25;1.35;;;;;;;;;;5020138;28;91691;-77
2023/04/14 20:31:23;;;;;;;3.47;1.35;;;;;;;;;;5020229;28;94075;-77
2023/04/14 20:33:49;;;;;;;3.75;1.20;;;;;;;;;;5016588;28;95546;-77
2023/04/14 20:36:16;;;;;;;2.42;1.15;;;;;;;;;;5014974;28;96159;-78
2023/04/14 20:38:43;;;;;;;9.38;1.77;;;;;;;;;;5017598;28;95378;-78
2023/04/14 20:41:09;;;;;;;5.72;1.30;;;;;;;;;;5013811;28;92707;-78
2023/04/14 20:43:36;;;;;;;6.28;1.42;;;;;;;;;;5001682;28;92597;-79
2023/04/14 20:46:02;;;;;;;6.55;1.48;;;;;;;;;;5016857;28;93203;-78
2023/04/14 20:48:30;;;;;;;3.22;1.20;;;;;;;;;;5017427;28;92923;-78
2023/04/14 20:50:58;;;;;;;5.65;1.40;;;;;;;;;;5012073;28;93251;-78
2023/04/14 20:53:27;;;;;;;;;;;;;;;;;;5018148;28;92083;-78
2023/04/14 20:55:53;;;;;;;4.18;1.40;;;;;;;;;;5016900;28;117414;-78
2023/04/14 20:58:20;;;;;;;4.35;1.40;;;;;;;;;;5016681;28;95069;-78
2023/04/14 21:00:46;;;;;;;4.32;1.60;;;;;;;;;;5008010;28;97807;-78
2023/04/14 21:03:13;;;;;;;4.15;1.50;;;;;;;;;;5013057;28;92972;-77
2023/04/14 21:05:40;;;;;;;7.07;1.95;;;;;;;;;;5009023;28;93448;-77
2023/04/14 21:08:07;;;;;;;14.93;1.70;;;;;;;;;;5015792;28;92124;-77
2023/04/14 21:10:34;;;;;;;5.72;1.58;;;;;;;;;;5012152;28;92577;-78
2023/04/14 21:13:21;;;;;;;6.43;1.60;;;;;;;;;;5017679;28;92691;-77
2023/04/14 21:16:07;;;;;;;8.35;1.70;;;;;;;;;;5009228;28;92286;-77
2023/04/14 21:18:35;;;;;;;7.57;1.80;;;;;;;;;;5017221;28;92282;-77
2023/04/14 21:21:03;;;;;;;4.55;1.50;;;;;;;;;;5010897;28;93294;-77
2023/04/14 21:23:30;;;;;;;10.60;1.88;;;;;;;;;;5015690;28;92454;-77
2023/04/14 21:25:58;;;;;;;6.57;1.58;;;;;;;;;;5017743;28;94587;-77
2023/04/14 21:28:25;;;;;;;4.60;1.48;;;;;;;;;;5032183;28;92369;-77
2023/04/14 21:30:54;;;;;;;5.45;1.73;;;;;;;;;;5018567;28;92312;-76
2023/04/14 21:33:21;;;;;;;4.32;1.50;;;;;;;;;;5008695;28;92090;-77
2023/04/14 21:35:48;;;;;;;5.88;1.60;;;;;;;;;;5019793;28;92509;-76
2023/04/14 21:38:14;;;;;;;3.97;1.67;;;;;;;;;;5012047;28;94996;-76
2023/04/14 21:40:42;;;;;;;5.28;1.70;;;;;;;;;;5008412;28;92290;-76
2023/04/14 21:43:08;;;;;;;5.53;1.50;;;;;;;;;;5017191;28;91680;-77
2023/04/14 21:45:35;;;;;;;3.53;1.60;;;;;;;;;;5017169;28;92482;-77
2023/04/14 21:48:02;;;;;;;4.32;1.70;;;;;;;;;;5034956;28;92761;-77
2023/04/14 21:50:29;;;;;;;5.57;1.50;;;;;;;;;;5013454;28;99499;-76
2023/04/14 21:52:58;;;;;;;5.97;1.95;;;;;;;;;;5015292;28;92659;-80
2023/04/14 21:55:25;;;;;;;13.55;1.95;;;;;;;;;;5010239;28;92606;-81
2023/04/14 21:57:52;;;;;;;12.95;1.90;;;;;;;;;;5009416;28;92582;-81
2023/04/14 22:00:20;;;;;;;13.55;1.83;;;;;;;;;;5013055;28;93047;-81
2023/04/14 22:02:46;;;;;;;5.65;1.70;;;;;;;;;;5005190;28;92218;-80
2023/04/14 22:05:13;;;;;;;6.93;1.85;;;;;;;;;;5017026;28;95047;-80
2023/04/14 22:07:40;;;;;;;5.20;1.70;;;;;;;;;;5019600;28;92318;-80
2023/04/14 22:10:06;;;;;;;5.85;1.40;;;;;;;;;;5019426;28;92159;-80
2023/04/14 22:12:36;;;;;;;7.38;1.50;;;;;;;;;;5017126;28;92767;-78
2023/04/14 22:15:03;;;;;;;7.82;1.70;;;;;;;;;;5013033;28;94478;-80
2023/04/14 22:17:30;;;;;;;9.05;1.95;;;;;;;;;;5005615;28;97018;-78
2023/04/14 22:19:57;;;;;;;5.13;1.50;;;;;;;;;;5015638;28;92809;-77
2023/04/14 22:22:24;;;;;;;6.82;1.70;;;;;;;;;;5010337;28;92126;-79
2023/04/14 22:24:52;;;;;;;4.20;1.52;;;;;;;;;;5017142;28;92456;-79
2023/04/14 22:27:19;;;;;;;5.60;1.70;;;;;;;;;;5012907;28;93676;-79
2023/04/14 22:29:45;;;;;;;6.13;1.60;;;;;;;;;;5018382;28;92532;-78
2023/04/14 22:32:12;;;;;;;3.95;1.40;;;;;;;;;;5006676;28;92382;-79
2023/04/14 22:34:38;;;;;;;5.45;1.50;;;;;;;;;;5017139;28;92262;-79
2023/04/14 22:37:06;;;;;;;4.20;1.40;;;;;;;;;;5014903;28;92557;-79
2023/04/14 22:39:32;;;;;;;4.53;1.45;;;;;;;;;;5000536;28;96034;-80
2023/04/14 22:41:59;;;;;;;11.60;1.70;;;;;;;;;;5012091;28;93167;-80
2023/04/14 22:44:26;;;;;;;9.82;1.58;;;;;;;;;;5004488;28;94517;-80
2023/04/14 22:46:52;;;;;;;8.00;1.70;;;;;;;;;;5022212;28;93639;-78
2023/04/14 22:49:19;;;;;;;4.78;1.77;;;;;;;;;;5030252;28;92425;-80
2023/04/14 22:51:46;;;;;;;4.43;1.58;;;;;;;;;;5022773;28;92456;-79
2023/04/14 22:54:12;;;;;;;5.15;1.98;;;;;;;;;;5035237;28;94053;-83
2023/04/14 22:56:39;;;;;;;8.07;2.00;;;;;;;;;;4999954;28;94273;-80
2023/04/14 22:59:06;;;;;;;4.65;1.88;;;;;;;;;;5035619;28;93162;-82
2023/04/14 23:01:33;;;;;;;19.33;2.80;;;;;;;;;;5033195;28;92071;-81
2023/04/14 23:03:59;;;;;;;10.15;2.03;;;;;;;;;;5034163;28;95018;-79
2023/04/14 23:06:26;;;;;;;11.00;2.30;;;;;;;;;;5034973;28;92738;-79
2023/04/14 23:08:52;;;;;;;9.40;2.20;;;;;;;;;;5001562;28;92402;-78
2023/04/14 23:11:19;;;;;;;10.27;2.08;;;;;;;;;;5026929;28;94688;-78
2023/04/14 23:13:48;;;;;;;7.13;1.73;;;;;;;;;;5019995;28;92860;-79
2023/04/14 23:16:20;;;;;;;11.18;2.00;;;;;;;;;;5010922;28;92500;-80
2023/04/14 23:18:53;;;;;;;17.35;2.65;;;;;;;;;;4999557;28;95905;-80
2023/04/14 23:21:20;;;;;;;7.20;1.83;;;;;;;;;;5020596;28;91826;-79
2023/04/14 23:23:48;;;;;;;9.98;1.80;;;;;;;;;;5020168;28;92447;-79
2023/04/14 23:26:14;;;;;;;12.35;2.22;;;;;;;;;;5018675;28;93197;-80
2023/04/14 23:28:41;;;;;;;17.92;2.33;;;;;;;;;;5017199;28;95361;-80
2023/04/14 23:31:08;;;;;;;15.35;2.45;;;;;;;;;;5000806;28;97669;-80
2023/04/14 23:33:34;;;;;;;15.05;2.35;;;;;;;;;;5024381;28;93237;-80
2023/04/14 23:36:01;;;;;;;12.88;2.03;;;;;;;;;;5020524;28;92368;-78
2023/04/14 23:38:27;;;;;;;14.40;2.08;;;;;;;;;;5018762;28;93173;-79
2023/04/14 23:40:57;;;;;;;13.32;2.35;;;;;;;;;;5018200;28;93031;-80
2023/04/14 23:43:24;;;;;;;6.22;2.35;;;;;;;;;;5006009;28;93138;-79
2023/04/14 23:45:51;;;;;;;6.85;2.00;;;;;;;;;;5018359;28;94085;-79
2023/04/14 23:48:18;;;;;;;7.55;1.98;;;;;;;;;;5018763;28;92355;-79
2023/04/14 23:50:44;;;;;;;6.55;2.20;;;;;;;;;;5016478;28;92466;-80
2023/04/14 23:53:31;;;;;;;8.25;1.95;;;;;;;;;;5017611;28;95728;-79
2023/04/14 23:55:58;;;;;;;6.10;2.17;;;;;;;;;;4997722;28;92213;-80
2023/04/14 23:58:24;;;;;;;6.65;2.30;;;;;;;;;;5019773;28;92891;-80
